Warrenton, NC (27589)

11:45 PM EST on December 04, 2016 (GMT -0500)
Cokesbury/Axtell | | Change Station

Elev 415 ft 36.36 °N, 78.29 °W | Updated 13 minutes ago

Rain
Rain
41.9 °F
Feels Like 42 °F
N
1.0
Wind Variable Wind from SSE
Gusts 1.0 mph

Today
High -- | Low -- °F
--% Chance of Precip.
Yesterday
High -- | Low -- °F
Precip. -- in
Pressure 30.09 in
Visibility 3.0 miles
Clouds Overcast 600 ft
Windchill 42 °F
Dew Point 41 °F
Humidity 96%
Rainfall 0.17 in
Snow Depth Not available.
7:08 AM 4:57 PM
Waxing Crescent, 28% visible
METAR KHNZ 050425Z AUTO 00000KT 3SM RA OVC006 03/03 A3009 RMK AO2 T00340027
Pressure 30.09 in
Visibility 3.0 miles
Clouds Overcast 600 ft
Windchill 42 °F
Dew Point 41 °F
Humidity 96%
Rainfall 0.17 in
Snow Depth Not available.
7:08 AM 4:57 PM
Waxing Crescent, 28% visible
METAR KHNZ 050425Z AUTO 00000KT 3SM RA OVC006 03/03 A3009 RMK AO2 T00340027

10-Day Weather Forecast

Almanac

Astronomy

Dec. 04, 2016 Rise Set
Actual Time
Civil Twilight
Nautical Twilight
Astronomical Twilight
Moon
Length of Visible Light
Length of Day
Tomorrow will be .
, % of the Moon is Illuminated

Today's Extremes

State Highs State Lows

Community

WunderPhotos

Upload Photos

1,955,757 photos uploaded!

WunderBlog® & News

Nearby

Air Quality

  Air Quality AQ Index Pollutant
Not available.

Snow Depth

Station Depth Elevation

Earthquake Activity

City Distance Mag. Time & Date
Minimum magnitude displayed is 2.5.

Coastal Water Temperatures

Place Temperature

Stations

Nearby Weather Stations

Station Location Temp. Windchill Dew Point Humidity Wind Precip. Elev Updated Type
                   

Watches & Warnings

There are currently no watches in effect.